Terminal Aerodrome Forecast
Issued by NWS

Home | Current Version | Previous Version | Graphics & Text | Print | Product List | Glossary On
Versions: 1 2 3 4 5 6 7 8 9 10 11 12 13 14 15 16 17
000
FTUS43 KICT 021725
TAFHUT
TAF
KHUT 021725Z 0218/0318 33009KT P6SM VCTS SCT030 BKN060CB
      TEMPO 0218/0221 -TSRA SCT030 BKN060CB
     FM022100 03008KT P6SM SCT060 BKN150
     FM030200 VRB03KT P6SM BKN080
     FM031200 29005KT P6SM SKC=

USA.gov is the U.S. government's official web portal to all federal, state and local government web resources and services.